createdAt,value
2023-03-31T00:03:55.717Z,29.99
2023-03-31T00:07:55.510Z,29.98
2023-03-31T00:11:55.512Z,31.63
2023-03-31T00:15:55.508Z,29.44
2023-03-31T00:19:55.450Z,29.04
2023-03-31T00:23:55.492Z,27.49
2023-03-31T00:27:55.442Z,25.18
2023-03-31T00:31:55.476Z,25.19
2023-03-31T00:35:55.559Z,25.07
2023-03-31T00:39:55.434Z,29.15
2023-03-31T00:43:55.444Z,28.17
2023-03-31T00:47:55.619Z,27.19
2023-03-31T00:51:55.484Z,29.84
2023-03-31T00:55:55.504Z,31.68
2023-03-31T00:59:55.507Z,30.72
2023-03-31T01:03:55.622Z,33.03
2023-03-31T01:07:55.594Z,36.85
2023-03-31T01:11:55.597Z,40.28
2023-03-31T01:15:55.644Z,47.61
2023-03-31T01:19:55.691Z,50.32
2023-03-31T01:23:55.760Z,53.53
2023-03-31T01:27:55.826Z,58.09
2023-03-31T01:31:55.876Z,60.35
2023-03-31T01:35:55.938Z,58.64
2023-03-31T01:39:55.930Z,62.23
2023-03-31T01:43:56.005Z,66.54
2023-03-31T01:47:56.079Z,63.81
2023-03-31T01:51:56.152Z,51.58
2023-03-31T01:55:56.180Z,52.33
2023-03-31T01:59:56.245Z,53.75
2023-03-31T02:03:56.435Z,55.35
2023-03-31T02:07:56.439Z,59.01
2023-03-31T02:11:56.481Z,62.74
2023-03-31T02:15:56.623Z,70.04
2023-03-31T02:19:56.598Z,70.92
2023-03-31T02:23:56.712Z,71.62
2023-03-31T02:27:56.803Z,71.00
2023-03-31T02:31:57.003Z,73.28
2023-03-31T02:35:57.044Z,77.16
2023-03-31T02:39:57.121Z,74.21
2023-03-31T02:43:57.220Z,71.86
2023-03-31T02:47:57.393Z,67.33
2023-03-31T02:51:57.432Z,68.11
2023-03-31T02:55:57.622Z,68.51
2023-03-31T02:59:57.636Z,66.33
2023-03-31T03:03:57.739Z,63.91
2023-03-31T03:07:57.805Z,63.42
2023-03-31T03:11:57.870Z,64.00
2023-03-31T03:15:58.001Z,66.55
2023-03-31T03:19:58.103Z,66.20
2023-03-31T03:23:58.240Z,65.96
2023-03-31T03:27:58.383Z,63.35
2023-03-31T03:31:58.508Z,64.21
2023-03-31T03:35:58.644Z,67.63
2023-03-31T03:39:58.797Z,71.23
2023-03-31T03:43:58.884Z,70.72
2023-03-31T03:47:59.123Z,71.86
2023-03-31T03:51:59.182Z,74.30
2023-03-31T03:55:59.367Z,73.56
2023-03-31T03:59:59.496Z,75.71
2023-03-31T04:03:59.628Z,76.12
2023-03-31T04:07:59.745Z,78.81
2023-03-31T04:11:59.859Z,78.05
2023-03-31T04:16:00.058Z,80.52
2023-03-31T04:20:00.163Z,80.35
2023-03-31T04:24:00.293Z,78.80
2023-03-31T04:28:00.459Z,80.43
2023-03-31T04:32:00.693Z,83.08
2023-03-31T04:36:00.852Z,80.83
2023-03-31T04:40:00.984Z,79.01
2023-03-31T04:44:01.142Z,80.84
2023-03-31T04:48:01.389Z,80.47
2023-03-31T04:52:01.480Z,80.86
2023-03-31T04:56:01.650Z,84.83
2023-03-31T05:00:01.795Z,89.03
2023-03-31T05:04:01.850Z,92.76
2023-03-31T05:08:01.979Z,94.14
2023-03-31T05:12:02.061Z,94.73
2023-03-31T05:16:02.161Z,96.12
2023-03-31T05:20:02.221Z,96.18
2023-03-31T05:24:02.294Z,95.78
2023-03-31T05:28:02.379Z,98.39
2023-03-31T05:32:02.476Z,101.60
2023-03-31T05:36:03.029Z,101.93
2023-03-31T05:40:03.004Z,110.85
2023-03-31T05:44:02.978Z,124.87
2023-03-31T05:48:02.988Z,144.03
2023-03-31T05:52:02.717Z,164.58
2023-03-31T05:56:03.234Z,198.08
2023-03-31T06:00:03.801Z,229.48
2023-03-31T06:04:03.151Z,244.64
2023-03-31T06:08:03.328Z,250.00
2023-03-31T06:12:03.453Z,249.40
2023-03-31T06:16:03.570Z,249.74
2023-03-31T06:20:12.901Z,250.00
2023-03-31T06:24:04.602Z,248.38
2023-03-31T06:28:03.671Z,242.37
2023-03-31T06:32:04.051Z,235.96
2023-03-31T06:36:03.627Z,231.95
2023-03-31T06:40:03.608Z,229.62
2023-03-31T06:44:03.538Z,227.61
2023-03-31T06:48:03.510Z,244.14
2023-03-31T06:52:03.506Z,249.97
2023-03-31T06:56:03.615Z,248.77
2023-03-31T07:00:03.527Z,249.64
2023-03-31T07:04:03.337Z,304.95
2023-03-31T07:08:03.300Z,278.55
2023-03-31T07:12:03.262Z,249.69
2023-03-31T07:16:03.331Z,248.19
2023-03-31T07:20:03.524Z,247.94
2023-03-31T07:24:03.155Z,249.86
2023-03-31T07:28:03.147Z,249.90
2023-03-31T07:32:03.164Z,250.00
2023-03-31T07:36:11.840Z,248.89
2023-03-31T07:40:04.534Z,249.88
2023-03-31T07:44:03.054Z,247.68
2023-03-31T07:48:03.586Z,246.66
2023-03-31T07:52:03.360Z,245.48
2023-03-31T07:56:03.504Z,245.96
2023-03-31T08:00:03.584Z,244.77
2023-03-31T08:04:03.753Z,243.48
2023-03-31T08:08:04.029Z,241.28
2023-03-31T08:12:03.857Z,239.04
2023-03-31T08:16:04.011Z,236.37
2023-03-31T08:20:07.532Z,235.08
2023-03-31T08:24:03.888Z,231.56
2023-03-31T08:28:03.884Z,230.48
2023-03-31T08:32:03.856Z,228.72
2023-03-31T08:36:03.826Z,226.01
2023-03-31T08:40:04.042Z,225.13
2023-03-31T08:44:04.060Z,223.54
2023-03-31T08:48:05.919Z,222.37
2023-03-31T08:52:05.515Z,220.07
2023-03-31T08:56:03.680Z,217.07
2023-03-31T09:00:04.059Z,217.73
2023-03-31T09:04:05.699Z,210.51
2023-03-31T09:08:03.472Z,203.91
2023-03-31T09:12:03.462Z,197.63
2023-03-31T09:16:03.477Z,193.71
2023-03-31T09:20:03.355Z,188.68
2023-03-31T09:24:03.337Z,185.15
2023-03-31T09:28:03.343Z,181.26
2023-03-31T09:32:03.278Z,178.14
2023-03-31T09:36:03.348Z,175.74
2023-03-31T09:40:03.567Z,173.20
2023-03-31T09:44:03.544Z,169.73
2023-03-31T09:48:03.492Z,172.25
2023-03-31T09:52:04.096Z,174.82
2023-03-31T09:56:04.863Z,179.22
2023-03-31T10:00:03.864Z,183.46
2023-03-31T10:04:03.963Z,184.36
2023-03-31T10:08:03.917Z,184.56
2023-03-31T10:12:04.078Z,185.35
2023-03-31T10:16:04.028Z,185.09
2023-03-31T10:20:03.951Z,182.78
2023-03-31T10:24:03.950Z,182.29
2023-03-31T10:28:03.970Z,183.81
2023-03-31T10:32:04.067Z,181.81
2023-03-31T10:36:04.098Z,180.40
2023-03-31T10:40:04.068Z,183.81
2023-03-31T10:44:03.941Z,182.31
2023-03-31T10:48:04.133Z,182.20
2023-03-31T10:52:03.957Z,183.65
2023-03-31T10:56:03.943Z,187.65
2023-03-31T11:00:03.937Z,190.72
2023-03-31T11:04:04.011Z,192.40
2023-03-31T11:08:04.009Z,194.00
2023-03-31T11:12:04.084Z,191.85
2023-03-31T11:16:04.154Z,190.38
2023-03-31T11:20:04.108Z,191.16
2023-03-31T11:24:04.101Z,192.23
2023-03-31T11:28:04.148Z,196.04
2023-03-31T11:32:04.104Z,194.78
2023-03-31T11:36:04.066Z,196.12
2023-03-31T11:40:04.018Z,194.26
2023-03-31T11:44:04.100Z,192.08
2023-03-31T11:48:06.240Z,187.00
2023-03-31T11:52:03.976Z,184.49
2023-03-31T11:56:04.125Z,183.09
2023-03-31T12:01:54.157Z,25.00
2023-03-31T12:02:54.201Z,25.00
2023-03-31T12:03:54.143Z,25.00
2023-03-31T12:04:54.141Z,25.00
2023-03-31T12:05:54.280Z,25.00
2023-03-31T12:06:54.117Z,25.00
2023-03-31T12:07:54.096Z,26.69
2023-03-31T12:08:54.098Z,26.66
2023-03-31T12:09:54.088Z,25.98
2023-03-31T12:10:54.089Z,25.00
2023-03-31T12:11:54.069Z,25.83
2023-03-31T12:12:54.092Z,26.47
2023-03-31T12:13:54.062Z,27.69
2023-03-31T12:14:54.057Z,27.00
2023-03-31T12:15:54.070Z,29.57
2023-03-31T12:16:54.051Z,28.36
2023-03-31T12:17:54.091Z,25.00
2023-03-31T12:18:54.482Z,25.64
2023-03-31T12:19:54.044Z,25.00
2023-03-31T12:20:54.022Z,27.01
2023-03-31T12:21:54.030Z,30.13
2023-03-31T12:22:54.019Z,30.86
2023-03-31T12:23:54.029Z,27.21
2023-03-31T12:24:54.011Z,29.55
2023-03-31T12:25:53.981Z,26.67
2023-03-31T12:26:53.978Z,25.00
2023-03-31T12:27:53.980Z,27.37
2023-03-31T12:28:53.949Z,29.61
2023-03-31T12:29:53.934Z,25.12
2023-03-31T12:30:55.004Z,29.00
2023-03-31T12:31:53.978Z,25.97
2023-03-31T12:32:53.946Z,26.28
2023-03-31T12:33:53.922Z,27.60
2023-03-31T12:34:53.914Z,32.35
2023-03-31T12:35:53.990Z,29.25
2023-03-31T12:36:55.518Z,31.54
2023-03-31T12:37:53.912Z,30.67
2023-03-31T12:38:53.912Z,32.21
2023-03-31T12:39:53.895Z,36.30
2023-03-31T12:40:53.869Z,38.10
2023-03-31T12:41:53.885Z,39.09
2023-03-31T12:42:53.893Z,37.46
2023-03-31T12:43:53.858Z,39.45
2023-03-31T12:44:53.866Z,40.88
2023-03-31T12:45:53.843Z,38.90
2023-03-31T12:46:53.854Z,37.73
2023-03-31T12:47:53.897Z,38.74
2023-03-31T12:48:55.320Z,39.15
2023-03-31T12:49:53.835Z,39.63
2023-03-31T12:50:53.810Z,40.38
2023-03-31T12:51:53.821Z,41.07
2023-03-31T12:52:53.791Z,41.14
2023-03-31T12:53:53.818Z,38.68
2023-03-31T12:54:53.808Z,37.46
2023-03-31T12:55:53.770Z,38.06
2023-03-31T12:56:53.823Z,35.82
2023-03-31T12:57:53.790Z,34.01
2023-03-31T12:58:53.758Z,34.14
2023-03-31T12:59:53.743Z,32.72
2023-03-31T13:00:53.825Z,34.46
2023-03-31T13:01:53.831Z,33.29
2023-03-31T13:02:53.878Z,31.22
2023-03-31T13:03:53.820Z,31.76
2023-03-31T13:04:53.815Z,31.79
2023-03-31T13:05:53.837Z,31.12
2023-03-31T13:06:53.863Z,33.61
2023-03-31T13:07:53.860Z,30.69
2023-03-31T13:08:53.847Z,30.35
2023-03-31T13:09:53.920Z,27.71
2023-03-31T13:10:53.960Z,28.89
2023-03-31T13:11:53.918Z,29.88
2023-03-31T13:12:53.944Z,28.35
2023-03-31T13:14:00.305Z,26.09
2023-03-31T13:14:54.962Z,26.37
2023-03-31T13:15:53.939Z,26.29
2023-03-31T13:16:55.575Z,23.94
2023-03-31T13:17:53.985Z,24.49
2023-03-31T13:18:53.923Z,21.59
2023-03-31T13:19:53.949Z,26.25
2023-03-31T13:20:53.931Z,26.09
2023-03-31T13:21:53.929Z,25.00
2023-03-31T13:22:53.943Z,25.03
2023-03-31T13:23:53.887Z,25.00
2023-03-31T13:24:53.892Z,25.00
2023-03-31T13:25:53.901Z,26.97
2023-03-31T13:26:54.896Z,25.97
2023-03-31T13:27:53.947Z,25.86
2023-03-31T13:28:53.873Z,27.60
2023-03-31T13:29:53.847Z,27.75
2023-03-31T13:30:53.851Z,29.24
2023-03-31T13:31:53.875Z,29.17
2023-03-31T13:32:53.936Z,28.93
2023-03-31T13:33:53.913Z,26.64
2023-03-31T13:34:53.919Z,29.30
2023-03-31T13:35:54.011Z,27.82
2023-03-31T13:36:53.995Z,27.22
2023-03-31T13:37:54.011Z,27.18
2023-03-31T13:38:54.069Z,25.00
2023-03-31T13:39:54.040Z,25.78
2023-03-31T13:40:54.090Z,26.10
2023-03-31T13:41:54.122Z,25.00
2023-03-31T13:42:54.131Z,29.82
2023-03-31T13:43:54.197Z,28.64
2023-03-31T13:44:54.209Z,28.93
2023-03-31T13:45:54.259Z,30.34
2023-03-31T13:46:54.311Z,30.75
2023-03-31T13:47:54.307Z,29.91
2023-03-31T13:48:54.288Z,30.44
2023-03-31T13:49:54.633Z,30.21
2023-03-31T13:50:54.338Z,29.58
2023-03-31T13:51:54.368Z,33.65
2023-03-31T13:52:54.377Z,33.43
2023-03-31T13:53:54.433Z,34.02
2023-03-31T13:54:54.433Z,34.48
2023-03-31T13:55:54.446Z,36.32
2023-03-31T13:56:54.520Z,34.79
2023-03-31T13:57:54.524Z,34.97
2023-03-31T13:58:54.566Z,33.75
2023-03-31T13:59:54.669Z,33.40
2023-03-31T14:00:54.602Z,29.53
2023-03-31T14:01:54.670Z,25.00
2023-03-31T14:02:54.742Z,25.00
2023-03-31T14:03:54.796Z,29.88
2023-03-31T14:04:54.696Z,27.75
2023-03-31T14:05:54.715Z,26.55
2023-03-31T14:06:54.743Z,27.33
2023-03-31T14:07:54.757Z,27.68
2023-03-31T14:08:54.786Z,29.10
2023-03-31T14:09:54.801Z,30.70
2023-03-31T14:10:54.880Z,30.21
2023-03-31T14:11:54.841Z,33.12
2023-03-31T14:12:54.876Z,32.56
2023-03-31T14:13:54.883Z,32.51
2023-03-31T14:14:54.928Z,31.84
2023-03-31T14:15:55.030Z,34.46
2023-03-31T14:16:55.007Z,32.58
2023-03-31T14:17:55.104Z,32.72
2023-03-31T14:18:55.047Z,34.05
2023-03-31T14:19:55.095Z,32.46
2023-03-31T14:20:55.168Z,31.48
2023-03-31T14:21:55.143Z,31.52
2023-03-31T14:22:55.535Z,32.63
2023-03-31T14:23:55.224Z,28.45
2023-03-31T14:24:55.239Z,29.62
2023-03-31T14:25:55.254Z,28.52
2023-03-31T14:26:55.300Z,27.05
2023-03-31T14:27:55.342Z,26.45
2023-03-31T14:28:55.396Z,26.98
2023-03-31T14:29:55.380Z,28.06
2023-03-31T14:30:55.422Z,31.10
2023-03-31T14:31:55.553Z,31.76
2023-03-31T14:32:55.500Z,32.40
2023-03-31T14:33:55.519Z,31.98
2023-03-31T14:34:55.539Z,32.49
2023-03-31T14:35:55.565Z,33.07
2023-03-31T14:36:55.639Z,32.89
2023-03-31T14:37:55.635Z,32.90
2023-03-31T14:38:55.673Z,34.34
2023-03-31T14:39:55.708Z,35.28
2023-03-31T14:40:55.750Z,32.73
2023-03-31T14:41:55.751Z,27.98
2023-03-31T14:42:55.797Z,28.86
2023-03-31T14:43:55.834Z,28.30
2023-03-31T14:44:55.872Z,26.34
2023-03-31T14:45:55.884Z,26.04
2023-03-31T14:46:56.013Z,28.41
2023-03-31T14:47:57.487Z,25.31
2023-03-31T14:48:56.010Z,25.95
2023-03-31T14:49:56.017Z,28.72
2023-03-31T14:50:56.069Z,26.07
2023-03-31T14:51:56.055Z,30.88
2023-03-31T14:52:56.114Z,33.38
2023-03-31T14:53:56.133Z,34.46
2023-03-31T14:54:56.172Z,33.74
2023-03-31T14:55:59.207Z,33.11
2023-03-31T14:56:56.238Z,35.29
2023-03-31T14:57:56.206Z,32.54
2023-03-31T14:58:56.168Z,34.29
2023-03-31T14:59:56.177Z,32.79
2023-03-31T15:00:56.265Z,31.84
2023-03-31T15:01:56.136Z,27.08
2023-03-31T15:02:56.177Z,26.09
2023-03-31T15:03:56.110Z,27.03
2023-03-31T15:04:56.109Z,25.99
2023-03-31T15:05:56.125Z,25.00
2023-03-31T15:06:56.074Z,25.00
2023-03-31T15:07:56.132Z,28.18
2023-03-31T15:08:56.079Z,25.63
2023-03-31T15:09:56.074Z,25.50
2023-03-31T15:11:02.274Z,25.90
2023-03-31T15:11:57.087Z,26.38
2023-03-31T15:12:56.061Z,27.05
2023-03-31T15:14:05.127Z,29.15
2023-03-31T15:14:57.052Z,26.50
2023-03-31T15:15:56.067Z,27.33
2023-03-31T15:16:56.111Z,27.11
2023-03-31T15:17:56.013Z,29.92
2023-03-31T15:18:56.021Z,34.67
2023-03-31T15:19:56.032Z,36.49
2023-03-31T15:20:55.982Z,36.49
2023-03-31T15:21:55.985Z,35.30
2023-03-31T15:22:55.989Z,33.94
2023-03-31T15:23:55.982Z,32.62
2023-03-31T15:24:55.983Z,30.57
2023-03-31T15:25:55.992Z,32.19
2023-03-31T15:26:55.996Z,27.12
2023-03-31T15:27:55.957Z,26.27
2023-03-31T15:28:56.002Z,25.00
2023-03-31T15:29:56.062Z,25.80
2023-03-31T15:31:09.070Z,27.62
2023-03-31T15:31:57.171Z,27.83
2023-03-31T15:33:01.446Z,28.23
2023-03-31T15:33:57.126Z,27.93
2023-03-31T15:34:57.251Z,28.62
2023-03-31T15:35:56.337Z,28.74
2023-03-31T15:36:56.307Z,28.08
2023-03-31T15:37:56.377Z,22.37
2023-03-31T15:38:56.330Z,27.12
2023-03-31T15:39:56.392Z,28.45
2023-03-31T15:40:56.420Z,25.09
2023-03-31T15:41:56.410Z,28.61
2023-03-31T15:43:06.450Z,29.39
2023-03-31T15:43:57.446Z,29.93
2023-03-31T15:44:56.447Z,31.53
2023-03-31T15:45:56.478Z,34.15
2023-03-31T15:46:56.430Z,37.34
2023-03-31T15:47:56.431Z,41.94
2023-03-31T15:48:56.707Z,44.51
2023-03-31T15:49:56.404Z,43.45
2023-03-31T15:50:56.409Z,40.23
2023-03-31T15:51:56.403Z,38.60
2023-03-31T15:52:56.409Z,38.48
2023-03-31T15:53:56.379Z,36.38
2023-03-31T15:54:56.387Z,34.39
2023-03-31T15:55:56.363Z,33.61
2023-03-31T15:56:56.433Z,30.73
2023-03-31T15:57:56.422Z,29.04
2023-03-31T15:58:56.492Z,28.92
2023-03-31T15:59:57.183Z,30.21
2023-03-31T16:00:56.516Z,33.39
2023-03-31T16:01:56.706Z,34.33
2023-03-31T16:02:56.666Z,36.59
2023-03-31T16:03:56.570Z,36.01
2023-03-31T16:04:56.663Z,35.56
2023-03-31T16:05:56.700Z,38.47
2023-03-31T16:06:56.704Z,39.87
2023-03-31T16:07:56.748Z,39.94
2023-03-31T16:08:56.750Z,39.71
2023-03-31T16:09:56.780Z,41.67
2023-03-31T16:10:56.797Z,42.30
2023-03-31T16:11:56.833Z,40.73
2023-03-31T16:12:56.909Z,42.19
2023-03-31T16:13:56.901Z,40.82
2023-03-31T16:14:56.916Z,38.21
2023-03-31T16:15:57.002Z,32.03
2023-03-31T16:16:56.968Z,33.56
2023-03-31T16:17:57.060Z,31.16
2023-03-31T16:18:57.031Z,30.57
2023-03-31T16:19:57.087Z,30.22
2023-03-31T16:20:57.094Z,32.26
2023-03-31T16:21:57.176Z,33.23
2023-03-31T16:22:57.199Z,33.61
2023-03-31T16:23:57.182Z,33.17
2023-03-31T16:24:57.225Z,33.50
2023-03-31T16:25:57.260Z,33.42
2023-03-31T16:26:57.663Z,33.78
2023-03-31T16:27:57.357Z,32.24
2023-03-31T16:28:57.405Z,27.32
2023-03-31T16:29:57.408Z,26.82
2023-03-31T16:30:57.468Z,25.22
2023-03-31T16:31:57.521Z,26.71
2023-03-31T16:32:58.220Z,27.20
2023-03-31T16:33:57.569Z,29.41
2023-03-31T16:34:57.581Z,26.55
2023-03-31T16:35:57.655Z,28.31
2023-03-31T16:36:57.720Z,27.61
2023-03-31T16:37:57.702Z,27.72
2023-03-31T16:38:58.454Z,27.71
2023-03-31T16:39:57.766Z,26.26
2023-03-31T16:40:57.818Z,25.00
2023-03-31T16:41:57.879Z,27.11
2023-03-31T16:42:57.937Z,26.64
2023-03-31T16:43:57.946Z,25.48
2023-03-31T16:45:10.116Z,27.35
2023-03-31T16:45:58.987Z,27.62
2023-03-31T16:46:57.981Z,28.24
2023-03-31T16:48:02.017Z,30.86
2023-03-31T16:48:59.100Z,27.98
2023-03-31T16:49:57.982Z,29.28
2023-03-31T16:50:58.001Z,31.30
2023-03-31T16:51:57.940Z,34.62
2023-03-31T16:52:57.951Z,40.78
2023-03-31T16:53:59.365Z,40.61
2023-03-31T16:54:57.912Z,42.69
2023-03-31T16:55:57.924Z,41.60
2023-03-31T16:56:57.956Z,39.36
2023-03-31T16:57:57.906Z,44.23
2023-03-31T16:58:57.890Z,44.21
2023-03-31T16:59:59.039Z,43.43
2023-03-31T17:00:58.036Z,42.68
2023-03-31T17:01:57.966Z,38.60
2023-03-31T17:02:58.182Z,34.65
2023-03-31T17:03:58.120Z,36.12
2023-03-31T17:05:06.279Z,37.72
2023-03-31T17:05:59.557Z,38.11
2023-03-31T17:06:58.093Z,38.94
2023-03-31T17:07:58.096Z,40.10
2023-03-31T17:08:58.075Z,41.37
2023-03-31T17:09:58.067Z,43.60
2023-03-31T17:10:58.048Z,46.62
2023-03-31T17:11:58.030Z,47.12
2023-03-31T17:12:58.097Z,49.59
2023-03-31T17:13:58.042Z,48.13
2023-03-31T17:14:58.034Z,47.32
2023-03-31T17:16:59.078Z,46.22
2023-03-31T17:17:58.026Z,46.25
2023-03-31T17:18:58.008Z,46.77
2023-03-31T17:19:58.001Z,46.45
2023-03-31T17:20:57.999Z,45.55
2023-03-31T17:21:57.992Z,47.90
2023-03-31T17:22:57.972Z,47.61
2023-03-31T17:24:00.209Z,47.68
2023-03-31T17:24:57.973Z,53.36
2023-03-31T17:25:57.986Z,48.67
2023-03-31T17:26:57.941Z,49.50
2023-03-31T17:27:57.928Z,48.28
2023-03-31T17:28:57.946Z,50.26
2023-03-31T17:29:57.924Z,52.08
2023-03-31T17:30:57.952Z,52.21
2023-03-31T17:31:58.098Z,51.14
2023-03-31T17:32:57.927Z,50.97
2023-03-31T17:33:57.914Z,50.11
2023-03-31T17:34:57.919Z,45.43
2023-03-31T17:35:57.885Z,49.16
2023-03-31T17:36:57.969Z,49.31
2023-03-31T17:37:57.887Z,50.40
2023-03-31T17:38:57.892Z,50.34
2023-03-31T17:39:57.890Z,50.70
2023-03-31T17:40:57.861Z,49.35
2023-03-31T17:41:57.873Z,51.86
2023-03-31T17:42:57.845Z,50.68
2023-03-31T17:43:57.858Z,52.54
2023-03-31T17:44:57.844Z,52.25
2023-03-31T17:45:57.916Z,51.53
2023-03-31T17:46:57.806Z,53.52
2023-03-31T17:47:57.824Z,52.99
2023-03-31T17:48:57.822Z,53.45
2023-03-31T17:49:57.805Z,52.57
2023-03-31T17:50:57.834Z,53.05
2023-03-31T17:51:57.804Z,51.68
2023-03-31T17:52:57.765Z,52.49
2023-03-31T17:53:57.786Z,51.87
2023-03-31T17:54:57.751Z,53.22
2023-03-31T17:55:57.760Z,51.80
2023-03-31T17:56:57.797Z,51.89
2023-03-31T17:57:57.750Z,53.25
2023-03-31T17:58:57.745Z,50.78
2023-03-31T17:59:57.758Z,51.85
2023-03-31T18:00:57.737Z,51.58
2023-03-31T18:01:57.802Z,51.62
2023-03-31T18:02:57.892Z,51.74
2023-03-31T18:03:57.890Z,51.21
2023-03-31T18:04:57.998Z,50.90
2023-03-31T18:05:57.949Z,50.19
2023-03-31T18:06:58.008Z,50.85
2023-03-31T18:07:58.041Z,50.10
2023-03-31T18:08:58.118Z,50.36
2023-03-31T18:09:58.173Z,51.10
2023-03-31T18:10:58.226Z,49.36
2023-03-31T18:11:58.247Z,49.25
2023-03-31T18:12:58.307Z,48.71
2023-03-31T18:13:58.399Z,49.42
2023-03-31T18:14:58.389Z,49.75
2023-03-31T18:15:58.506Z,49.07
2023-03-31T18:16:58.545Z,47.82
2023-03-31T18:17:58.666Z,48.23
2023-03-31T18:18:58.604Z,49.37
2023-03-31T18:19:58.664Z,47.75
2023-03-31T18:20:58.678Z,48.15
2023-03-31T18:21:58.743Z,47.23
2023-03-31T18:22:58.815Z,48.26
2023-03-31T18:23:58.822Z,48.32
2023-03-31T18:24:58.878Z,46.56
2023-03-31T18:25:59.007Z,46.74
2023-03-31T18:26:58.956Z,45.96
2023-03-31T18:27:59.040Z,46.17
2023-03-31T18:28:59.084Z,45.15
2023-03-31T18:29:59.125Z,46.40
2023-03-31T18:30:59.184Z,45.98
2023-03-31T18:31:59.299Z,45.02
2023-03-31T18:32:59.344Z,44.92
2023-03-31T18:33:59.310Z,45.74
2023-03-31T18:34:59.349Z,44.37
2023-03-31T18:35:59.441Z,43.08
2023-03-31T18:36:59.535Z,43.98
2023-03-31T18:37:59.521Z,45.92
2023-03-31T18:38:59.567Z,43.75
2023-03-31T18:39:59.591Z,43.66
2023-03-31T18:40:59.671Z,43.04
2023-03-31T18:41:59.750Z,41.94
2023-03-31T18:42:59.765Z,43.35
2023-03-31T18:43:59.815Z,42.57
2023-03-31T18:44:59.848Z,40.97
2023-03-31T18:45:59.906Z,41.28
2023-03-31T18:46:59.994Z,41.58
2023-03-31T18:48:00.110Z,41.56
2023-03-31T18:49:00.074Z,41.53
2023-03-31T18:50:00.156Z,40.89
2023-03-31T18:51:00.174Z,41.04
2023-03-31T18:52:00.239Z,39.83
2023-03-31T18:53:00.303Z,40.17
2023-03-31T18:54:00.394Z,40.55
2023-03-31T18:55:00.370Z,40.47
2023-03-31T18:56:00.420Z,39.79
2023-03-31T18:57:00.488Z,38.81
2023-03-31T18:58:00.507Z,40.95
2023-03-31T18:59:00.592Z,40.32
2023-03-31T19:00:00.624Z,39.78
2023-03-31T19:01:00.688Z,38.64
2023-03-31T19:02:00.762Z,39.92
2023-03-31T19:03:00.855Z,38.79
2023-03-31T19:04:00.818Z,38.73
2023-03-31T19:05:00.845Z,36.62
2023-03-31T19:06:00.898Z,37.69
2023-03-31T19:07:00.963Z,37.11
2023-03-31T19:08:01.017Z,37.33
2023-03-31T19:09:01.065Z,37.23
2023-03-31T19:10:01.141Z,36.52
2023-03-31T19:11:01.184Z,36.95
2023-03-31T19:12:01.200Z,36.82
2023-03-31T19:13:01.264Z,36.36
2023-03-31T19:14:01.343Z,36.82
2023-03-31T19:15:01.388Z,35.79
2023-03-31T19:16:01.436Z,36.77
2023-03-31T19:17:01.683Z,35.75
2023-03-31T19:18:01.609Z,37.29
2023-03-31T19:19:01.614Z,36.15
2023-03-31T19:20:01.702Z,36.27
2023-03-31T19:21:01.736Z,35.54
2023-03-31T19:22:01.765Z,37.52
2023-03-31T19:23:01.801Z,36.82
2023-03-31T19:24:01.852Z,35.76
2023-03-31T19:25:01.936Z,34.82
2023-03-31T19:26:01.975Z,34.53
2023-03-31T19:27:02.058Z,34.71
2023-03-31T19:28:02.086Z,34.79
2023-03-31T19:29:02.144Z,33.51
2023-03-31T19:30:02.172Z,34.92
2023-03-31T19:31:02.206Z,33.51
2023-03-31T19:32:02.329Z,33.95
2023-03-31T19:33:02.395Z,32.51
2023-03-31T19:34:02.411Z,32.41
2023-03-31T19:35:02.442Z,29.76
2023-03-31T19:36:02.482Z,32.39
2023-03-31T19:37:02.545Z,31.36
2023-03-31T19:38:02.635Z,31.58
2023-03-31T19:39:02.661Z,30.03
2023-03-31T19:40:02.687Z,31.30
2023-03-31T19:41:02.768Z,31.51
2023-03-31T19:42:02.816Z,30.61
2023-03-31T19:43:02.857Z,30.10
2023-03-31T19:44:02.906Z,30.92
2023-03-31T19:45:02.939Z,29.59
2023-03-31T19:46:03.093Z,29.58
2023-03-31T19:47:03.052Z,27.61
2023-03-31T19:48:03.222Z,29.85
2023-03-31T19:49:03.214Z,28.40
2023-03-31T19:50:03.246Z,29.45
2023-03-31T19:51:03.288Z,27.61
2023-03-31T19:52:03.371Z,27.32
2023-03-31T19:53:03.409Z,29.52
2023-03-31T19:54:03.485Z,28.60
2023-03-31T19:55:03.532Z,27.37
2023-03-31T19:56:03.591Z,27.18
2023-03-31T19:57:03.717Z,27.93
2023-03-31T19:58:03.685Z,28.27
2023-03-31T19:59:03.770Z,27.45
2023-03-31T20:00:05.326Z,27.56
2023-03-31T20:01:03.889Z,28.00
2023-03-31T20:02:04.076Z,27.53
2023-03-31T20:03:04.077Z,26.65
2023-03-31T20:04:04.131Z,26.61
2023-03-31T20:05:04.074Z,25.00
2023-03-31T20:06:04.150Z,25.16
2023-03-31T20:07:04.169Z,25.96
2023-03-31T20:08:04.221Z,27.43
2023-03-31T20:09:04.337Z,26.64
2023-03-31T20:10:04.384Z,25.86
2023-03-31T20:11:04.497Z,26.99
2023-03-31T20:12:04.508Z,26.42
2023-03-31T20:13:04.481Z,25.01
2023-03-31T20:14:04.539Z,26.90
2023-03-31T20:15:04.597Z,26.07
2023-03-31T20:16:04.699Z,26.77
2023-03-31T20:17:04.724Z,25.79
2023-03-31T20:18:04.814Z,25.29
2023-03-31T20:19:04.850Z,25.93
2023-03-31T20:20:04.879Z,25.94
2023-03-31T20:21:04.917Z,26.10
2023-03-31T20:22:04.974Z,26.46
2023-03-31T20:23:05.029Z,26.92
2023-03-31T20:24:05.164Z,27.61
2023-03-31T20:25:05.162Z,25.49
2023-03-31T20:26:05.210Z,26.74
2023-03-31T20:27:05.265Z,27.61
2023-03-31T20:28:05.325Z,27.62
2023-03-31T20:29:05.361Z,26.37
2023-03-31T20:30:05.441Z,27.70
2023-03-31T20:31:05.521Z,25.98
2023-03-31T20:32:05.539Z,25.87
2023-03-31T20:33:05.626Z,26.51
2023-03-31T20:34:05.637Z,26.64
2023-03-31T20:35:05.741Z,27.03
2023-03-31T20:36:05.799Z,25.62
2023-03-31T20:37:05.843Z,27.12
2023-03-31T20:38:05.904Z,25.21
2023-03-31T20:39:05.942Z,26.24
2023-03-31T20:40:06.032Z,27.01
2023-03-31T20:41:06.049Z,25.54
2023-03-31T20:42:06.128Z,27.25
2023-03-31T20:43:06.194Z,27.78
2023-03-31T20:44:06.250Z,25.83
2023-03-31T20:45:06.281Z,25.88
2023-03-31T20:46:06.359Z,25.92
2023-03-31T20:47:06.494Z,27.56
2023-03-31T20:48:06.464Z,26.94
2023-03-31T20:49:06.520Z,25.55
2023-03-31T20:50:06.560Z,25.67
2023-03-31T20:51:06.652Z,27.20
2023-03-31T20:52:06.660Z,26.85
2023-03-31T20:53:06.750Z,26.37
2023-03-31T20:54:06.791Z,27.21
2023-03-31T20:55:06.860Z,27.42
2023-03-31T20:56:06.929Z,25.88
2023-03-31T20:57:07.035Z,26.82
2023-03-31T20:58:07.045Z,25.37
2023-03-31T20:59:07.083Z,25.00
2023-03-31T21:00:07.173Z,25.94
2023-03-31T21:01:07.268Z,26.48
2023-03-31T21:02:07.259Z,25.14
2023-03-31T21:03:07.364Z,27.71
2023-03-31T21:04:08.182Z,27.09
2023-03-31T21:05:07.470Z,25.56
2023-03-31T21:06:11.301Z,26.92
2023-03-31T21:07:07.501Z,27.13
2023-03-31T21:08:07.514Z,27.20
2023-03-31T21:09:07.517Z,27.35
2023-03-31T21:10:07.519Z,25.27
2023-03-31T21:11:08.044Z,25.67
2023-03-31T21:12:07.484Z,27.09
2023-03-31T21:13:07.464Z,26.33
2023-03-31T21:14:07.480Z,25.02
2023-03-31T21:15:07.461Z,25.63
2023-03-31T21:16:07.529Z,27.65
2023-03-31T21:17:07.610Z,26.45
2023-03-31T21:18:07.449Z,26.01
2023-03-31T21:19:07.449Z,26.13
2023-03-31T21:20:07.441Z,26.91
2023-03-31T21:21:07.446Z,27.63
2023-03-31T21:22:07.402Z,26.55
2023-03-31T21:23:07.442Z,28.32
2023-03-31T21:24:07.491Z,27.53
2023-03-31T21:25:07.520Z,26.77
2023-03-31T21:26:07.584Z,26.23
2023-03-31T21:27:07.663Z,25.79
2023-03-31T21:28:07.719Z,26.98
2023-03-31T21:29:07.806Z,25.60
2023-03-31T21:30:07.834Z,25.87
2023-03-31T21:31:07.930Z,25.62
2023-03-31T21:32:08.047Z,26.51
2023-03-31T21:33:08.062Z,27.66
2023-03-31T21:34:08.084Z,26.07
2023-03-31T21:35:08.138Z,26.35
2023-03-31T21:36:08.212Z,25.37
2023-03-31T21:37:08.267Z,27.37
2023-03-31T21:38:08.342Z,26.97
2023-03-31T21:39:08.373Z,26.76
2023-03-31T21:40:08.451Z,25.78
2023-03-31T21:41:08.490Z,25.52
2023-03-31T21:42:08.551Z,27.18
2023-03-31T21:43:08.628Z,27.50
2023-03-31T21:44:08.653Z,26.71
2023-03-31T21:45:08.755Z,27.60
2023-03-31T21:46:08.833Z,25.94
2023-03-31T21:47:08.829Z,25.52
2023-03-31T21:48:08.945Z,27.65
2023-03-31T21:49:08.946Z,26.67
2023-03-31T21:50:09.004Z,26.12
2023-03-31T21:51:09.079Z,26.95
2023-03-31T21:52:09.117Z,28.97
2023-03-31T21:53:09.182Z,26.45